Time;durP1;ratioP1;P1;durP2;ratioP2;P2;SDS_P1;SDS_P2;PMS_P1;PMS_P2;Temp;Humidity;BMP_temperature;BMP_pressure;BME280_temperature;BME280_humidity;BME280_pressure;Samples;Min_cycle;Max_cycle;Signal;HPM_P1;HPM_P2
2021/07/27 06:33:30;;;;;;;4.10;3.47;;;;;;;21.46;78.63;95595.94;5910499;24;20244;-85
2021/07/27 07:06:41;;;;;;;4.13;3.00;;;;;;;21.88;75.69;95616.31;5833436;24;20217;-84
2021/07/27 07:19:28;;;;;;;;;;;;;;;;;;;;;
2021/07/27 07:29:48;;;;;;;3.05;2.85;;;;;;;22.40;72.21;95604.25;5761403;24;20192;-84
2021/07/27 08:00:00;;;;;;;3.35;3.05;;;;;;;23.46;67.25;95594.69;5861236;24;20871;-83
2021/07/27 08:16:52;;;;;;;;;;;;;;;;;;;;;
2021/07/27 08:57:15;;;;;;;3.50;3.20;;;;;;;25.22;57.69;95616.19;5719667;24;20177;-85
2021/07/27 09:13:15;;;;;;;;;;;;;;;;;;;;;
2021/07/27 10:58:31;;;;;;;;;;;;;;;;;;;;;
2021/07/27 11:01:11;;;;;;;4.15;3.85;;;;;;;26.17;51.47;95542.19;6062140;23;20182;-86
2021/07/27 11:07:43;;;;;;;4.47;4.07;;;;;;;26.04;50.07;95536.47;6121473;23;20214;-88
2021/07/27 11:17:37;;;;;;;7.47;4.15;;;;;;;26.04;50.56;95530.41;6104909;23;20525;-87
2021/07/27 11:20:54;;;;;;;4.32;3.90;;;;;;;26.14;50.48;95530.34;6086395;23;20233;-87
2021/07/27 11:23:33;;;;;;;4.53;3.90;;;;;;;26.24;52.08;95526.81;6112576;23;20198;-89
2021/07/27 11:26:20;;;;;;;3.90;3.60;;;;;;;26.25;51.58;95523.91;6119575;23;20195;-88
2021/07/27 11:28:55;;;;;;;5.00;3.83;;;;;;;26.15;50.92;95514.22;6119784;23;20211;-87
2021/07/27 11:31:51;;;;;;;4.50;3.75;;;;;;;25.99;51.47;95511.94;6119186;23;20788;-88
2021/07/27 11:34:32;;;;;;;5.72;4.18;;;;;;;25.78;50.64;95506.06;6119818;23;20195;-88
2021/07/27 11:39:53;;;;;;;4.68;4.13;;;;;;;25.68;51.50;95498.97;6116776;23;20183;-87
2021/07/27 11:42:31;;;;;;;4.03;3.63;;;;;;;25.61;52.88;95498.47;6119516;23;20589;-88
2021/07/27 11:48:48;;;;;;;5.40;3.55;;;;;;;25.67;50.91;95497.41;6095106;23;20250;-87
2021/07/27 11:51:50;;;;;;;;;;;;;;;;;;;;;
2021/07/27 11:54:29;;;;;;;7.28;3.50;;;;;;;25.83;50.76;95484.09;6119102;23;20250;-88
2021/07/27 11:57:09;;;;;;;4.72;3.75;;;;;;;25.78;51.01;95482.31;6119836;23;20180;-89
2021/07/27 11:59:38;;;;;;;4.18;3.78;;;;;;;25.80;50.78;95477.53;6120156;23;20500;-88
2021/07/27 12:02:07;;;;;;;3.40;3.10;;;;;;;25.89;51.08;95469.81;6119147;23;20152;-87
2021/07/27 12:07:23;;;;;;;3.40;3.10;;;;;;;25.91;51.45;95465.06;6104522;23;20670;-88
2021/07/27 12:12:59;;;;;;;4.13;3.65;;;;;;;26.15;50.20;95468.56;6119906;23;20168;-87
2021/07/27 12:19:28;;;;;;;5.40;3.55;;;;;;;26.58;48.71;95474.75;6003125;23;20290;-87
2021/07/27 12:29:46;;;;;;;3.05;2.85;;;;;;;27.26;46.51;95452.63;5884347;23;20195;-87
2021/07/27 12:36:15;;;;;;;3.35;3.05;;;;;;;27.27;47.49;95447.03;6015793;23;20670;-87
2021/07/27 12:49:26;;;;;;;3.00;2.80;;;;;;;27.53;47.10;95453.53;6001480;23;20185;-88
2021/07/27 12:52:07;;;;;;;;;;;;;;;;;;;;;
2021/07/27 12:54:46;;;;;;;3.03;2.78;;;;;;;27.93;47.18;95440.78;6120729;23;20203;-87
2021/07/27 12:58:00;;;;;;;3.63;2.92;;;;;;;27.98;46.02;95442.56;6121207;23;20160;-85
2021/07/27 13:00:37;;;;;;;3.83;2.97;;;;;;;28.13;46.48;95440.47;6117998;23;20186;-86
2021/07/27 13:03:17;;;;;;;4.05;2.90;;;;;;;28.24;45.81;95433.16;6120106;23;20505;-85
2021/07/27 13:12:59;;;;;;;3.63;3.10;;;;;;;27.94;48.50;95423.06;6093314;23;20553;-86
2021/07/27 13:18:55;;;;;;;3.50;3.20;;;;;;;27.94;48.41;95423.06;6089881;23;20687;-86
2021/07/27 13:25:22;;;;;;;3.53;3.17;;;;;;;27.61;49.55;95430.97;6043088;23;20278;-87
2021/07/27 13:27:55;;;;;;;3.60;3.25;;;;;;;27.52;49.72;95424.72;6120544;23;20179;-86
2021/07/27 13:34:00;;;;;;;3.20;3.00;;;;;;;27.17;50.78;95418.88;6097379;23;20494;-85
2021/07/27 14:02:18;;;;;;;;;;;;;;;;;;;;;
2021/07/27 14:04:51;;;;;;;4.00;3.30;;;;;;;27.80;48.61;95373.53;6119568;23;20191;-86
2021/07/27 14:07:34;;;;;;;3.60;3.30;;;;;;;27.75;47.97;95381.53;6119420;23;20718;-86
2021/07/27 14:22:10;;;;;;;3.50;3.20;;;;;;;27.87;48.84;95372.38;5951016;23;20233;-88
2021/07/27 14:30:49;;;;;;;3.85;3.45;;;;;;;27.99;48.15;95362.09;6088787;23;20255;-87
2021/07/27 15:01:02;;;;;;;3.00;2.75;;;;;;;27.52;46.07;95348.00;5864886;24;20648;-87
2021/07/27 15:23:06;;;;;;;3.13;2.80;;;;;;;26.74;47.71;95351.25;6089600;23;20198;-86
2021/07/27 18:39:21;;;;;;;3.78;3.47;;;;;;;25.28;60.94;95314.69;5732600;25;20260;-89
2021/07/27 18:48:07;;;;;;;4.50;4.20;;;;;;;25.14;62.32;95314.53;6117842;23;20194;-88
2021/07/27 18:50:35;;;;;;;4.95;4.47;;;;;;;25.11;61.49;95321.13;6119796;23;20191;-88
2021/07/27 18:56:26;;;;;;;5.55;5.00;;;;;;;25.05;61.99;95324.84;6091953;23;20246;-86
2021/07/27 18:58:53;;;;;;;5.32;4.78;;;;;;;25.09;61.96;95323.25;6095009;23;20605;-86
2021/07/27 19:01:19;;;;;;;4.63;4.22;;;;;;;25.02;62.58;95324.59;6095867;23;20180;-86
2021/07/27 19:03:46;;;;;;;4.32;3.92;;;;;;;24.99;61.89;95318.06;6093204;23;20200;-82
2021/07/27 19:06:13;;;;;;;6.45;3.83;;;;;;;25.02;61.62;95329.88;6092992;23;20291;-86
2021/07/27 19:08:39;;;;;;;4.40;4.00;;;;;;;25.06;61.78;95341.44;6094616;23;20234;-87
2021/07/27 19:11:06;;;;;;;4.28;3.88;;;;;;;25.11;60.95;95342.19;6094106;23;20237;-85
2021/07/27 19:13:36;;;;;;;4.25;3.95;;;;;;;25.01;60.90;95342.28;6095863;23;20195;-88
2021/07/27 19:16:02;;;;;;;4.53;4.22;;;;;;;24.97;61.30;95343.88;6097002;23;20203;-87
2021/07/27 19:18:31;;;;;;;4.25;3.95;;;;;;;24.97;61.50;95351.00;6097815;23;20235;-87
2021/07/27 19:20:58;;;;;;;4.28;3.97;;;;;;;24.93;61.77;95355.97;6097608;23;20182;-85
2021/07/27 19:23:27;;;;;;;7.90;4.30;;;;;;;24.94;61.64;95356.78;6096976;23;20204;-85
2021/07/27 19:25:54;;;;;;;4.78;4.38;;;;;;;25.00;61.46;95358.34;6097005;23;20578;-83
2021/07/27 19:28:22;;;;;;;5.15;4.72;;;;;;;25.06;61.57;95365.16;6098981;23;20177;-84
2021/07/27 19:30:52;;;;;;;5.45;4.95;;;;;;;25.10;61.62;95366.97;6102990;23;20207;-83
2021/07/27 19:33:20;;;;;;;5.07;4.63;;;;;;;25.17;61.37;95369.31;6101208;23;20247;-86
2021/07/27 19:35:47;;;;;;;4.60;4.20;;;;;;;25.19;61.41;95361.94;6100415;23;20179;-82
2021/07/27 19:38:18;;;;;;;4.50;4.18;;;;;;;25.21;61.94;95365.03;6101517;23;20176;-84
2021/07/27 19:40:50;;;;;;;4.60;4.20;;;;;;;25.22;61.23;95365.84;6102799;23;20180;-82
2021/07/27 19:43:37;;;;;;;4.80;4.40;;;;;;;25.20;61.59;95366.13;6104008;23;20200;-85
2021/07/27 19:46:24;;;;;;;5.45;4.60;;;;;;;25.15;61.98;95371.44;6104560;23;20186;-86
2021/07/27 19:49:00;;;;;;;4.43;4.05;;;;;;;25.19;61.56;95359.28;6099379;23;20217;-82
2021/07/27 19:51:27;;;;;;;4.70;4.30;;;;;;;25.23;61.76;95359.50;6099243;23;20159;-83
2021/07/27 19:53:55;;;;;;;4.68;4.28;;;;;;;25.23;62.10;95359.50;6099285;23;20218;-86
2021/07/27 19:56:41;;;;;;;5.07;4.45;;;;;;;25.17;62.70;95361.41;6099359;23;20193;-85
2021/07/27 19:59:07;;;;;;;5.25;4.75;;;;;;;25.01;62.88;95357.28;6099464;23;20164;-83
2021/07/27 20:01:35;;;;;;;5.45;4.88;;;;;;;24.96;63.39;95360.75;6098444;23;20244;-85
2021/07/27 20:04:05;;;;;;;5.45;4.95;;;;;;;24.98;63.01;95358.63;6100144;23;20222;-85
2021/07/27 20:06:32;;;;;;;4.72;4.35;;;;;;;25.00;63.15;95359.16;6085192;23;20236;-84
2021/07/27 20:09:00;;;;;;;4.90;4.50;;;;;;;25.05;63.36;95358.31;6097725;23;20177;-85
2021/07/27 20:11:27;;;;;;;5.30;4.80;;;;;;;25.05;63.33;95359.09;6097990;23;20183;-84
2021/07/27 20:13:54;;;;;;;4.97;4.57;;;;;;;25.04;63.31;95354.88;6096751;23;20196;-86
2021/07/27 20:16:20;;;;;;;5.60;5.10;;;;;;;25.06;63.41;95360.66;6096168;23;20204;-84
2021/07/27 20:18:49;;;;;;;5.22;4.78;;;;;;;25.06;63.87;95359.88;6095909;23;20180;-85
2021/07/27 20:21:18;;;;;;;5.18;4.63;;;;;;;25.02;64.13;95359.63;6095728;23;20180;-83
2021/07/27 20:23:45;;;;;;;4.78;4.38;;;;;;;25.02;64.31;95372.81;6096264;23;20200;-84
2021/07/27 20:26:11;;;;;;;5.70;5.22;;;;;;;25.01;64.20;95367.84;6095669;23;20492;-82
2021/07/27 20:28:38;;;;;;;9.20;8.35;;;;;;;25.05;63.88;95369.63;6096071;23;20184;-84
2021/07/27 20:31:05;;;;;;;6.53;5.93;;;;;;;25.03;64.08;95363.84;6096433;23;20180;-85
2021/07/27 20:33:31;;;;;;;5.13;4.70;;;;;;;25.04;63.91;95360.16;6096029;23;20203;-83
2021/07/27 20:35:59;;;;;;;5.75;5.15;;;;;;;25.07;64.15;95362.25;6095746;23;20180;-84
2021/07/27 20:38:25;;;;;;;5.55;4.90;;;;;;;25.02;65.10;95370.16;6095993;23;20180;-86
2021/07/27 20:40:52;;;;;;;4.63;4.30;;;;;;;25.03;64.44;95373.59;6095534;23;20198;-85
2021/07/27 20:43:19;;;;;;;5.30;4.88;;;;;;;24.99;64.79;95377.84;6095655;23;20202;-86
2021/07/27 20:45:48;;;;;;;5.25;4.63;;;;;;;24.98;64.91;95387.59;6096218;23;20653;-86
2021/07/27 20:48:15;;;;;;;5.10;4.60;;;;;;;24.98;65.03;95397.34;6095590;23;20527;-86
2021/07/27 20:50:42;;;;;;;4.90;4.50;;;;;;;24.97;65.47;95403.69;6095977;23;20180;-85
2021/07/27 20:53:10;;;;;;;5.28;4.75;;;;;;;25.00;64.98;95406.56;6094259;23;20192;-85
2021/07/27 20:55:38;;;;;;;5.93;5.22;;;;;;;24.93;65.13;95406.03;6095017;23;20197;-85
2021/07/27 20:58:05;;;;;;;5.88;4.95;;;;;;;24.90;66.96;95396.03;6095460;23;20168;-85
2021/07/27 21:00:31;;;;;;;5.88;5.28;;;;;;;24.89;70.01;95397.09;6095911;23;20177;-86
2021/07/27 21:02:59;;;;;;;5.70;5.15;;;;;;;24.84;72.37;95399.75;6095534;23;20510;-85
2021/07/27 21:05:25;;;;;;;5.78;5.20;;;;;;;24.76;73.75;95400.31;6087608;23;20207;-84
2021/07/27 21:07:52;;;;;;;8.50;7.60;;;;;;;24.70;76.15;95396.13;6112306;23;20200;-84
2021/07/27 21:10:22;;;;;;;9.73;8.35;;;;;;;24.64;78.36;95397.19;6095017;23;20184;-84
2021/07/27 21:12:51;;;;;;;9.52;8.63;;;;;;;24.57;78.43;95407.25;6095145;23;20171;-84
2021/07/27 21:15:23;;;;;;;8.07;6.30;;;;;;;24.51;80.04;95416.19;6095513;23;20180;-85
2021/07/27 21:17:50;;;;;;;6.60;5.90;;;;;;;24.48;77.96;95424.63;6094967;23;20158;-84
2021/07/27 21:20:16;;;;;;;7.72;5.82;;;;;;;24.37;79.81;95419.41;6095268;23;20268;-85
2021/07/27 21:22:43;;;;;;;6.85;5.22;;;;;;;24.35;79.92;95434.66;6095258;23;20176;-84
2021/07/27 21:25:19;;;;;;;6.05;5.55;;;;;;;24.32;80.96;95429.94;6094420;23;20181;-84
2021/07/27 21:27:47;;;;;;;5.18;4.75;;;;;;;24.15;84.40;95434.66;6095083;23;20530;-84
2021/07/27 21:30:13;;;;;;;7.40;5.55;;;;;;;24.03;83.75;95434.16;6095475;23;20207;-87
2021/07/27 21:32:42;;;;;;;6.07;5.28;;;;;;;24.03;83.73;95447.31;6095759;23;20518;-86
2021/07/27 21:35:09;;;;;;;5.50;5.10;;;;;;;24.01;84.22;95447.59;6094795;23;20280;-87
2021/07/27 21:37:36;;;;;;;5.13;4.72;;;;;;;23.94;85.75;95447.03;6095224;23;20182;-83
2021/07/27 21:40:02;;;;;;;5.72;5.15;;;;;;;23.92;84.40;95449.16;6095489;23;20176;-84
2021/07/27 21:42:29;;;;;;;5.05;4.65;;;;;;;23.82;85.04;95449.16;6094867;23;20187;-86
2021/07/27 21:44:56;;;;;;;7.35;5.10;;;;;;;23.82;83.41;95441.28;6095216;23;20205;-86
2021/07/27 21:47:23;;;;;;;5.53;5.03;;;;;;;23.85;82.79;95443.38;6094940;23;20210;-86
2021/07/27 21:49:52;;;;;;;5.65;5.00;;;;;;;23.89;83.48;95441.00;6095874;23;20181;-85
2021/07/27 21:52:20;;;;;;;5.68;5.22;;;;;;;23.78;85.57;95429.69;6096447;23;20190;-86
2021/07/27 21:54:46;;;;;;;5.88;5.32;;;;;;;23.81;85.22;95428.38;6093956;23;20200;-86
2021/07/27 21:57:13;;;;;;;5.93;5.35;;;;;;;23.60;86.85;95422.31;6094011;23;20187;-85
2021/07/27 21:59:39;;;;;;;5.93;5.53;;;;;;;23.45;89.07;95417.81;6094425;23;20176;-87
2021/07/27 22:02:07;;;;;;;5.68;5.07;;;;;;;23.46;88.17;95414.16;6094539;23;20175;-82
2021/07/27 22:04:35;;;;;;;6.40;5.80;;;;;;;23.53;88.72;95401.56;6094346;23;20196;-81
2021/07/27 22:07:01;;;;;;;5.72;5.22;;;;;;;23.63;89.80;95417.34;6093602;23;20555;-81
2021/07/27 22:09:28;;;;;;;6.13;5.53;;;;;;;23.66;89.97;95435.22;6093474;23;20222;-81
2021/07/27 22:11:54;;;;;;;4.97;4.57;;;;;;;23.71;88.64;95445.72;6093121;23;20191;-81
2021/07/27 22:14:20;;;;;;;5.95;5.45;;;;;;;23.73;87.97;95443.63;6093207;23;20200;-81
2021/07/27 22:16:47;;;;;;;5.60;5.03;;;;;;;23.68;87.76;95442.81;6096723;23;20176;-85
2021/07/27 22:19:15;;;;;;;6.50;5.70;;;;;;;23.63;90.14;95433.13;6097958;23;20183;-81
2021/07/27 22:21:41;;;;;;;6.28;5.60;;;;;;;23.60;91.21;95423.13;6097885;23;20176;-86
2021/07/27 22:24:07;;;;;;;5.80;5.30;;;;;;;23.60;91.24;95415.22;6096694;23;20200;-82
2021/07/27 22:26:34;;;;;;;6.03;5.50;;;;;;;23.50;91.85;95415.19;6097060;23;20188;-84
2021/07/27 22:29:00;;;;;;;6.22;5.63;;;;;;;23.50;91.39;95414.38;6096624;23;20184;-85
2021/07/27 22:31:27;;;;;;;6.70;6.20;;;;;;;23.37;92.31;95407.81;6097141;23;20668;-83
2021/07/27 22:33:53;;;;;;;6.15;5.55;;;;;;;23.35;92.59;95412.53;6096856;23;20208;-85
2021/07/27 22:36:21;;;;;;;5.80;5.40;;;;;;;23.44;92.24;95416.25;6097224;23;20187;-83
2021/07/27 22:38:47;;;;;;;6.97;5.90;;;;;;;23.50;93.06;95419.66;6096851;23;20181;-83
2021/07/27 22:41:19;;;;;;;6.72;6.15;;;;;;;23.53;91.80;95417.31;6096194;23;20175;-85
2021/07/27 22:43:46;;;;;;;5.72;5.32;;;;;;;23.60;91.75;95411.81;6096440;23;20204;-84
2021/07/27 22:46:12;;;;;;;7.10;6.50;;;;;;;23.50;94.26;95407.28;6096225;23;20667;-85
2021/07/27 22:48:39;;;;;;;6.93;6.32;;;;;;;23.30;95.37;95402.00;6096322;23;20196;-84
2021/07/27 22:51:07;;;;;;;6.13;5.60;;;;;;;23.32;95.19;95398.06;6096050;23;20180;-82
2021/07/27 22:53:35;;;;;;;6.55;6.05;;;;;;;23.35;93.57;95402.81;6096524;23;20200;-83
2021/07/27 22:56:01;;;;;;;6.10;5.60;;;;;;;23.42;94.08;95392.84;6095010;23;20187;-84
2021/07/27 22:58:28;;;;;;;6.10;5.60;;;;;;;23.49;94.51;95386.53;6095719;23;20176;-85
2021/07/27 23:00:58;;;;;;;5.93;5.43;;;;;;;23.57;93.18;95397.34;6096542;23;20180;-86
2021/07/27 23:03:25;;;;;;;6.72;6.05;;;;;;;23.53;95.10;95392.88;6095857;23;20196;-83
2021/07/27 23:05:51;;;;;;;6.47;5.88;;;;;;;23.56;94.08;95401.03;6094543;23;20585;-83
2021/07/27 23:08:17;;;;;;;5.72;5.22;;;;;;;23.59;95.48;95402.34;6094737;23;20204;-82
2021/07/27 23:10:46;;;;;;;5.68;5.28;;;;;;;23.63;94.26;95403.41;6093863;23;20179;-82
2021/07/27 23:13:12;;;;;;;5.45;5.05;;;;;;;23.68;93.74;95416.53;6093516;23;20201;-83
2021/07/27 23:15:39;;;;;;;5.47;4.63;;;;;;;23.66;93.77;95427.34;6096906;23;20183;-83
2021/07/27 23:18:06;;;;;;;5.15;4.80;;;;;;;23.68;92.50;95429.69;6096124;23;20172;-85
2021/07/27 23:20:34;;;;;;;5.32;4.82;;;;;;;23.65;91.98;95438.91;6096338;23;20180;-84
2021/07/27 23:23:00;;;;;;;5.47;5.05;;;;;;;23.62;91.58;95449.94;6094147;23;20586;-81
2021/07/27 23:25:37;;;;;;;5.75;5.28;;;;;;;23.55;91.08;95452.00;6094387;23;20177;-84
2021/07/27 23:28:04;;;;;;;5.70;5.10;;;;;;;23.45;91.83;95454.63;6095076;23;20266;-85
2021/07/27 23:30:31;;;;;;;6.35;5.85;;;;;;;23.28;92.56;95454.06;6095992;23;20184;-82
2021/07/27 23:32:58;;;;;;;6.88;6.25;;;;;;;23.22;94.08;95453.25;6095752;23;20180;-83
2021/07/27 23:35:24;;;;;;;6.22;5.72;;;;;;;23.20;93.79;95457.16;6094089;23;20176;-82
2021/07/27 23:37:51;;;;;;;6.20;5.55;;;;;;;23.20;95.00;95446.66;6096128;23;20172;-85
2021/07/27 23:40:18;;;;;;;5.25;4.65;;;;;;;23.19;93.80;95450.34;6096852;23;20181;-81
2021/07/27 23:42:44;;;;;;;5.63;5.07;;;;;;;23.16;91.66;95456.91;6095792;23;20180;-81
2021/07/27 23:45:14;;;;;;;5.93;5.32;;;;;;;23.18;91.69;95446.13;6096842;23;20176;-84
2021/07/27 23:47:40;;;;;;;6.10;5.60;;;;;;;23.08;93.17;95445.06;6096395;23;20226;-84
2021/07/27 23:50:08;;;;;;;5.60;5.10;;;;;;;23.12;93.23;95440.06;6096271;23;20180;-85
2021/07/27 23:52:34;;;;;;;5.75;5.30;;;;;;;23.09;93.79;95445.84;6095867;23;20187;-82
2021/07/27 23:55:00;;;;;;;5.53;5.13;;;;;;;23.14;92.20;95452.94;6095752;23;20203;-85
2021/07/27 23:57:27;;;;;;;6.13;4.78;;;;;;;23.12;91.10;95445.31;6095514;23;20187;-83
2021/07/27 23:59:53;;;;;;;5.40;5.00;;;;;;;22.97;94.29;95447.91;6096221;23;20634;-84
